createdAt,value
2022-10-04T00:00:31.277Z,0.60
2022-10-04T00:03:18.577Z,0.60
2022-10-04T00:05:50.460Z,0.65
2022-10-04T00:08:41.497Z,0.63
2022-10-04T00:11:16.294Z,0.60
2022-10-04T00:13:48.581Z,0.60
2022-10-04T00:16:25.974Z,0.60
2022-10-04T00:19:14.365Z,0.63
2022-10-04T00:22:04.036Z,0.90
2022-10-04T00:24:32.535Z,0.70
2022-10-04T00:27:21.169Z,0.63
2022-10-04T00:30:15.541Z,0.73
2022-10-04T00:32:42.091Z,0.93
2022-10-04T00:35:27.043Z,0.60
2022-10-04T00:38:02.191Z,0.75
2022-10-04T00:40:36.213Z,1.00
2022-10-04T00:43:06.939Z,0.82
2022-10-04T00:45:56.045Z,0.90
2022-10-04T00:48:31.966Z,1.10
2022-10-04T00:51:07.591Z,1.10
2022-10-04T00:53:51.838Z,1.08
2022-10-04T00:56:26.399Z,1.23
2022-10-04T00:58:57.503Z,1.20
2022-10-04T01:01:27.271Z,1.88
2022-10-04T01:03:56.633Z,1.42
2022-10-04T01:06:23.997Z,1.63
2022-10-04T01:08:56.161Z,1.52
2022-10-04T01:11:29.703Z,1.52
2022-10-04T01:13:58.819Z,1.48
2022-10-04T01:16:28.264Z,1.27
2022-10-04T01:18:55.016Z,1.27
2022-10-04T01:21:27.216Z,1.10
2022-10-04T01:24:16.494Z,1.35
2022-10-04T01:26:44.795Z,1.13
2022-10-04T01:29:37.776Z,1.77
2022-10-04T01:32:04.568Z,1.33
2022-10-04T01:34:31.280Z,1.38
2022-10-04T01:37:01.281Z,1.98
2022-10-04T01:39:29.044Z,0.90
2022-10-04T01:41:57.153Z,0.90
2022-10-04T01:44:32.959Z,1.48
2022-10-04T01:47:03.213Z,1.15
2022-10-04T01:49:32.510Z,1.75
2022-10-04T01:52:05.651Z,1.83
2022-10-04T01:54:38.299Z,2.70
2022-10-04T01:57:18.281Z,2.28
2022-10-04T01:59:49.958Z,1.58
2022-10-04T02:02:22.150Z,1.42
2022-10-04T02:04:53.993Z,1.38
2022-10-04T02:07:21.457Z,1.80
2022-10-04T02:09:50.206Z,1.80
2022-10-04T02:12:18.830Z,2.50
2022-10-04T02:14:52.783Z,1.67
2022-10-04T02:17:32.371Z,2.38
2022-10-04T02:20:00.457Z,1.70
2022-10-04T02:22:27.280Z,1.65
2022-10-04T02:24:55.478Z,2.13
2022-10-04T02:27:29.173Z,1.50
2022-10-04T02:30:10.936Z,1.88
2022-10-04T02:32:57.672Z,2.35
2022-10-04T02:35:27.464Z,1.80
2022-10-04T02:38:12.960Z,2.10
2022-10-04T02:40:46.530Z,1.48
2022-10-04T02:43:26.974Z,2.20
2022-10-04T02:45:55.550Z,3.20
2022-10-04T02:48:46.503Z,4.80
2022-10-04T02:51:18.821Z,1.75
2022-10-04T02:53:49.432Z,1.50
2022-10-04T02:56:17.510Z,0.73
2022-10-04T02:58:45.064Z,0.90
2022-10-04T03:01:40.797Z,0.90
2022-10-04T03:04:11.906Z,0.65
2022-10-04T03:06:39.415Z,0.85
2022-10-04T03:09:06.374Z,0.70
2022-10-04T03:11:38.373Z,0.82
2022-10-04T03:14:10.394Z,0.77
2022-10-04T03:16:39.743Z,0.80
2022-10-04T03:19:07.424Z,0.70
2022-10-04T03:21:36.701Z,0.73
2022-10-04T03:24:04.717Z,0.68
2022-10-04T03:26:36.886Z,0.82
2022-10-04T03:29:07.470Z,0.60
2022-10-04T03:31:35.011Z,0.73
2022-10-04T03:34:01.769Z,0.80
2022-10-04T03:36:28.586Z,0.50
2022-10-04T03:38:56.489Z,0.60
2022-10-04T03:41:26.301Z,0.60
2022-10-04T03:43:55.578Z,0.52
2022-10-04T03:46:23.768Z,0.60
2022-10-04T03:48:52.865Z,0.55
2022-10-04T03:51:24.770Z,0.57
2022-10-04T03:53:59.437Z,0.93
2022-10-04T03:56:28.854Z,0.63
2022-10-04T03:58:56.277Z,0.50
2022-10-04T04:01:28.859Z,0.85
2022-10-04T04:04:01.673Z,0.60
2022-10-04T04:06:37.921Z,0.80
2022-10-04T04:09:05.396Z,0.43
2022-10-04T04:11:32.995Z,0.60
2022-10-04T04:14:07.762Z,0.77
2022-10-04T04:16:34.876Z,0.40
2022-10-04T04:19:03.916Z,0.60
2022-10-04T04:21:31.012Z,0.55
2022-10-04T04:24:10.075Z,0.90
2022-10-04T04:26:44.119Z,0.95
2022-10-04T04:29:26.048Z,0.70
2022-10-04T04:31:56.504Z,0.80
2022-10-04T04:34:29.182Z,0.63
2022-10-04T04:37:03.975Z,0.77
2022-10-04T04:39:34.915Z,0.90
2022-10-04T04:42:14.537Z,0.47
2022-10-04T04:44:52.226Z,0.63
2022-10-04T04:47:22.163Z,0.93
2022-10-04T04:49:50.005Z,1.02
2022-10-04T04:52:18.141Z,0.60
2022-10-04T04:54:47.177Z,0.73
2022-10-04T04:57:17.532Z,0.70
2022-10-04T04:59:50.457Z,0.60
2022-10-04T05:02:35.241Z,0.93
2022-10-04T05:05:18.918Z,1.00
2022-10-04T05:07:45.905Z,1.08
2022-10-04T05:10:34.269Z,0.90
2022-10-04T05:13:02.425Z,1.10
2022-10-04T05:15:34.991Z,1.50
2022-10-04T05:18:29.329Z,0.95
2022-10-04T05:20:58.772Z,0.90
2022-10-04T05:23:29.322Z,1.27
2022-10-04T05:25:56.160Z,1.20
2022-10-04T05:28:22.940Z,0.88
2022-10-04T05:31:03.165Z,1.67
2022-10-04T05:33:45.704Z,1.25
2022-10-04T05:36:13.771Z,1.00
2022-10-04T05:38:48.977Z,1.00
2022-10-04T05:41:48.694Z,1.95
2022-10-04T05:44:44.939Z,1.65
2022-10-04T05:47:12.616Z,1.50
2022-10-04T05:49:44.867Z,1.38
2022-10-04T05:52:36.016Z,1.30
2022-10-04T05:55:29.156Z,1.85
2022-10-04T05:58:19.269Z,1.63
2022-10-04T06:01:14.817Z,1.90
2022-10-04T06:03:59.713Z,1.30
2022-10-04T06:06:38.841Z,1.67
2022-10-04T06:09:23.905Z,2.40
2022-10-04T06:12:01.275Z,1.42
2022-10-04T06:15:02.618Z,1.90
2022-10-04T06:18:13.877Z,1.85
2022-10-04T06:20:43.772Z,1.98
2022-10-04T06:23:18.629Z,1.92
2022-10-04T06:25:59.156Z,3.90
2022-10-04T06:28:35.471Z,11.48
2022-10-04T06:31:07.288Z,16.08
2022-10-04T06:33:53.140Z,18.58
2022-10-04T06:36:25.742Z,5.68
2022-10-04T06:39:03.924Z,12.98
2022-10-04T06:41:34.215Z,14.82
2022-10-04T06:44:30.952Z,19.67
2022-10-04T06:47:21.743Z,19.02
2022-10-04T06:50:33.857Z,13.65
2022-10-04T06:53:32.655Z,10.55
2022-10-04T06:56:36.911Z,5.43
2022-10-04T06:59:25.325Z,4.55
2022-10-04T07:02:07.289Z,3.33
2022-10-04T07:05:07.706Z,4.05
2022-10-04T07:07:42.119Z,1.60
2022-10-04T07:10:16.565Z,3.05
2022-10-04T07:12:47.755Z,2.13
2022-10-04T07:15:26.766Z,2.60
2022-10-04T07:17:54.366Z,2.58
2022-10-04T07:20:26.329Z,2.35
2022-10-04T07:23:03.573Z,1.70
2022-10-04T07:25:36.871Z,2.22
2022-10-04T07:28:28.052Z,3.75
2022-10-04T07:31:03.991Z,2.70
2022-10-04T07:33:35.920Z,2.40
2022-10-04T07:36:05.772Z,2.63
2022-10-04T07:38:34.715Z,2.10
2022-10-04T07:41:23.231Z,2.50
2022-10-04T07:44:04.468Z,2.35
2022-10-04T07:46:42.984Z,1.70
2022-10-04T07:49:18.101Z,2.20
2022-10-04T07:51:55.837Z,2.88
2022-10-04T07:54:38.935Z,1.80
2022-10-04T07:57:13.448Z,3.25
2022-10-04T07:59:52.404Z,2.13
2022-10-04T08:02:54.663Z,2.33
2022-10-04T08:05:26.570Z,2.28
2022-10-04T08:08:14.233Z,2.22
2022-10-04T08:10:57.415Z,1.92
2022-10-04T08:13:38.892Z,3.80
2022-10-04T08:16:19.985Z,2.00
2022-10-04T08:19:10.221Z,1.90
2022-10-04T08:22:12.536Z,2.55
2022-10-04T08:24:44.332Z,2.58
2022-10-04T08:27:29.055Z,1.98
2022-10-04T08:30:14.452Z,2.60
2022-10-04T08:32:47.153Z,2.17
2022-10-04T08:35:39.522Z,2.20
2022-10-04T08:38:17.421Z,3.17
2022-10-04T08:40:46.879Z,3.15
2022-10-04T08:43:19.821Z,3.08
2022-10-04T08:46:00.653Z,2.83
2022-10-04T08:49:05.521Z,3.38
2022-10-04T08:51:47.368Z,3.85
2022-10-04T08:54:16.707Z,3.67
2022-10-04T08:57:05.129Z,3.42
2022-10-04T08:59:53.395Z,3.60
2022-10-04T09:02:22.701Z,3.10
2022-10-04T09:05:17.148Z,3.80
2022-10-04T09:08:21.376Z,3.53
2022-10-04T09:11:12.550Z,3.33
2022-10-04T09:13:45.170Z,2.65
2022-10-04T09:16:18.887Z,3.35
2022-10-04T09:19:10.618Z,3.60
2022-10-04T09:21:46.189Z,3.17
2022-10-04T09:24:18.800Z,3.17
2022-10-04T09:26:53.539Z,3.83
2022-10-04T09:29:32.382Z,3.03
2022-10-04T09:32:23.114Z,3.15
2022-10-04T09:35:06.592Z,4.15
2022-10-04T09:37:42.574Z,3.55
2022-10-04T09:40:38.725Z,2.97
2022-10-04T09:46:05.438Z,2.90
2022-10-04T09:48:41.707Z,3.38
2022-10-04T09:51:26.207Z,2.83
2022-10-04T09:54:23.235Z,3.25
2022-10-04T09:57:40.956Z,2.95
2022-10-04T10:00:23.558Z,3.70
2022-10-04T10:03:15.876Z,3.25
2022-10-04T10:06:08.793Z,3.47
2022-10-04T10:08:40.815Z,2.67
2022-10-04T10:11:58.871Z,4.07
2022-10-04T10:14:37.248Z,4.00
2022-10-04T10:17:36.547Z,4.55
2022-10-04T10:20:44.945Z,6.18
2022-10-04T10:23:31.791Z,4.25
2022-10-04T10:26:28.833Z,4.38
2022-10-04T10:29:16.948Z,4.15
2022-10-04T10:32:02.428Z,3.85
2022-10-04T10:34:54.201Z,3.92
2022-10-04T10:37:31.033Z,4.63
2022-10-04T10:39:57.853Z,4.20
2022-10-04T10:42:31.879Z,4.38
2022-10-04T10:45:10.690Z,5.07
2022-10-04T10:47:46.515Z,5.20
2022-10-04T10:50:22.670Z,3.90
2022-10-04T10:53:17.416Z,4.40
2022-10-04T10:56:19.043Z,4.80
2022-10-04T10:59:26.133Z,5.45
2022-10-04T11:02:05.826Z,3.50
2022-10-04T11:05:18.924Z,5.05
2022-10-04T11:08:06.608Z,4.80
2022-10-04T11:10:51.853Z,5.03
2022-10-04T11:13:26.980Z,5.18
2022-10-04T11:16:02.534Z,6.05
2022-10-04T11:18:58.667Z,5.57
2022-10-04T11:24:32.304Z,4.03
2022-10-04T11:27:16.965Z,4.38
2022-10-04T11:29:55.432Z,3.70
2022-10-04T11:32:22.115Z,2.95
2022-10-04T11:35:01.088Z,4.00
2022-10-04T11:37:44.122Z,4.72
2022-10-04T11:40:36.858Z,4.55
2022-10-04T11:43:20.066Z,4.57
2022-10-04T11:46:20.770Z,5.10
2022-10-04T11:49:08.402Z,4.57
2022-10-04T11:52:02.154Z,4.30
2022-10-04T11:55:08.942Z,4.45
2022-10-04T12:00:22.119Z,4.45
2022-10-04T12:02:55.205Z,4.13
2022-10-04T12:05:50.983Z,4.20
2022-10-04T12:08:23.850Z,3.63
2022-10-04T12:11:54.661Z,4.18
2022-10-04T12:14:51.078Z,4.80
2022-10-04T12:17:27.752Z,3.30
2022-10-04T12:20:27.467Z,4.07
2022-10-04T12:23:03.838Z,3.22
2022-10-04T12:25:48.239Z,3.33
2022-10-04T12:28:40.178Z,2.83
2022-10-04T12:31:06.789Z,3.60
2022-10-04T12:34:06.055Z,2.78
2022-10-04T12:37:11.589Z,2.85
2022-10-04T12:40:10.576Z,3.20
2022-10-04T12:42:46.915Z,3.38
2022-10-04T12:45:38.309Z,3.50
2022-10-04T12:48:17.110Z,3.10
2022-10-04T12:50:47.128Z,3.25
2022-10-04T12:53:31.956Z,4.10
2022-10-04T12:56:29.933Z,3.55
2022-10-04T12:59:18.305Z,4.07
2022-10-04T13:01:57.408Z,4.18
2022-10-04T13:04:32.586Z,4.05
2022-10-04T13:07:31.217Z,4.63
2022-10-04T13:10:30.442Z,5.53
2022-10-04T13:13:21.926Z,4.72
2022-10-04T13:19:38.552Z,3.97
2022-10-04T13:22:55.544Z,5.32
2022-10-04T13:25:51.243Z,4.10
2022-10-04T13:28:20.756Z,3.75
2022-10-04T13:30:47.463Z,3.42
2022-10-04T13:33:26.588Z,3.67
2022-10-04T13:35:59.586Z,3.10
2022-10-04T13:38:42.295Z,3.60
2022-10-04T13:41:40.785Z,3.25
2022-10-04T13:44:40.369Z,2.50
2022-10-04T13:47:17.546Z,2.90
2022-10-04T13:50:17.504Z,2.03
2022-10-04T13:53:28.352Z,3.10
2022-10-04T13:56:20.498Z,1.95
2022-10-04T13:59:03.298Z,2.38
2022-10-04T14:01:58.922Z,3.72
2022-10-04T14:04:43.225Z,5.95
2022-10-04T14:07:31.857Z,3.58
2022-10-04T14:10:36.091Z,3.42
2022-10-04T14:13:36.884Z,3.00
2022-10-04T14:16:13.300Z,5.07
2022-10-04T14:19:01.529Z,3.78
2022-10-04T14:21:47.627Z,4.18
2022-10-04T14:24:36.527Z,3.83
2022-10-04T14:27:34.194Z,4.13
2022-10-04T14:30:12.690Z,4.68
2022-10-04T14:32:54.877Z,5.38
2022-10-04T14:35:34.285Z,4.95
2022-10-04T14:38:24.518Z,5.10
2022-10-04T14:41:25.164Z,4.20
2022-10-04T14:44:03.966Z,6.28
2022-10-04T14:46:52.224Z,4.00
2022-10-04T14:49:37.853Z,3.40
2022-10-04T14:52:20.647Z,4.20
2022-10-04T14:54:54.415Z,4.13
2022-10-04T14:58:06.189Z,4.35
2022-10-04T15:01:00.014Z,4.45
2022-10-04T15:03:40.701Z,4.03
2022-10-04T15:06:13.152Z,4.05
2022-10-04T15:09:17.694Z,5.22
2022-10-04T15:12:25.470Z,4.57
2022-10-04T15:15:05.451Z,4.05
2022-10-04T15:17:38.101Z,4.60
2022-10-04T15:20:17.076Z,4.65
2022-10-04T15:22:48.084Z,4.85
2022-10-04T15:25:38.286Z,4.53
2022-10-04T15:28:13.823Z,4.47
2022-10-04T15:31:12.811Z,4.53
2022-10-04T15:33:59.123Z,3.63
2022-10-04T15:36:31.988Z,4.80
2022-10-04T15:39:05.084Z,4.75
2022-10-04T15:42:03.974Z,3.78
2022-10-04T15:44:47.973Z,4.40
2022-10-04T15:47:34.034Z,3.53
2022-10-04T15:50:21.358Z,3.60
2022-10-04T15:53:05.855Z,4.18
2022-10-04T15:55:50.875Z,4.07
2022-10-04T15:58:29.650Z,3.78
2022-10-04T16:01:19.900Z,3.95
2022-10-04T16:04:21.005Z,4.07
2022-10-04T16:06:54.109Z,5.03
2022-10-04T16:12:07.382Z,3.80
2022-10-04T16:15:12.981Z,4.22
2022-10-04T16:17:54.623Z,3.93
2022-10-04T16:20:27.822Z,3.15
2022-10-04T16:23:25.629Z,4.35
2022-10-04T16:25:56.046Z,3.80
2022-10-04T16:29:16.118Z,4.13
2022-10-04T16:32:05.238Z,3.53
2022-10-04T16:34:41.642Z,3.95
2022-10-04T16:37:30.663Z,5.38
2022-10-04T16:40:09.643Z,4.03
2022-10-04T16:42:45.268Z,4.63
2022-10-04T16:45:14.416Z,4.82
2022-10-04T16:47:56.574Z,3.47
2022-10-04T16:50:53.715Z,4.60
2022-10-04T16:53:32.753Z,4.30
2022-10-04T16:56:12.364Z,4.45
2022-10-04T16:59:03.710Z,4.28
2022-10-04T17:02:04.335Z,4.00
2022-10-04T17:04:37.118Z,4.20
2022-10-04T17:07:14.888Z,4.28
2022-10-04T17:10:06.376Z,4.22
2022-10-04T17:13:34.576Z,4.70
2022-10-04T17:16:10.460Z,4.13
2022-10-04T17:18:45.944Z,4.13
2022-10-04T17:21:28.270Z,5.25
2022-10-04T17:24:20.958Z,4.38
2022-10-04T17:27:00.822Z,4.90
2022-10-04T17:29:37.764Z,4.93
2022-10-04T17:32:16.968Z,5.20
2022-10-04T17:35:06.803Z,5.38
2022-10-04T17:37:47.270Z,5.43
2022-10-04T17:40:16.745Z,4.55
2022-10-04T17:43:05.979Z,4.68
2022-10-04T17:45:47.571Z,6.15
2022-10-04T17:48:33.645Z,4.95
2022-10-04T17:51:43.902Z,5.47
2022-10-04T17:54:33.155Z,5.90
2022-10-04T17:57:03.338Z,5.75
2022-10-04T17:59:38.498Z,6.18
2022-10-04T18:02:17.791Z,6.07
2022-10-04T18:04:51.667Z,5.53
2022-10-04T18:07:44.962Z,5.28
2022-10-04T18:10:30.392Z,5.18
2022-10-04T18:13:04.002Z,6.88
2022-10-04T18:16:00.283Z,5.90
2022-10-04T18:18:38.631Z,6.28
2022-10-04T18:21:27.534Z,6.45
2022-10-04T18:24:00.407Z,6.85
2022-10-04T18:26:33.055Z,5.93
2022-10-04T18:29:01.267Z,5.40
2022-10-04T18:31:36.957Z,6.95
2022-10-04T18:34:24.355Z,6.95
2022-10-04T18:36:58.163Z,5.95
2022-10-04T18:39:25.147Z,5.68
2022-10-04T18:42:20.365Z,6.72
2022-10-04T18:44:52.480Z,7.87
2022-10-04T18:47:29.557Z,6.07
2022-10-04T18:50:02.834Z,4.75
2022-10-04T18:53:08.503Z,6.50
2022-10-04T18:55:56.770Z,6.47
2022-10-04T18:58:48.195Z,7.00
2022-10-04T19:02:06.856Z,6.68
2022-10-04T19:04:55.196Z,5.93
2022-10-04T19:07:51.683Z,6.30
2022-10-04T19:10:32.602Z,6.38
2022-10-04T19:13:18.565Z,6.97
2022-10-04T19:16:19.738Z,5.15
2022-10-04T19:18:49.292Z,7.38
2022-10-04T19:21:49.984Z,6.60
2022-10-04T19:24:53.313Z,7.03
2022-10-04T19:27:22.895Z,6.90
2022-10-04T19:30:08.071Z,6.75
2022-10-04T19:32:40.573Z,7.30
2022-10-04T19:35:29.078Z,7.13
2022-10-04T19:38:22.786Z,7.93
2022-10-04T19:41:04.507Z,6.72
2022-10-04T19:43:50.590Z,7.38
2022-10-04T19:46:17.278Z,7.88
2022-10-04T19:48:50.138Z,7.47
2022-10-04T19:51:37.102Z,8.25
2022-10-04T19:54:15.406Z,8.00
2022-10-04T19:56:46.338Z,8.05
2022-10-04T19:59:18.776Z,7.00
2022-10-04T20:01:45.974Z,6.53
2022-10-04T20:04:36.070Z,7.25
2022-10-04T20:07:24.045Z,5.28
2022-10-04T20:09:52.491Z,6.10
2022-10-04T20:12:40.387Z,5.45
2022-10-04T20:15:28.965Z,5.68
2022-10-04T20:17:56.639Z,5.13
2022-10-04T20:20:47.406Z,5.97
2022-10-04T20:23:39.604Z,5.60
2022-10-04T20:26:06.973Z,6.75
2022-10-04T20:28:35.672Z,5.28
2022-10-04T20:31:03.697Z,5.38
2022-10-04T20:33:37.262Z,5.95
2022-10-04T20:36:12.402Z,5.57
2022-10-04T20:39:01.334Z,6.20
2022-10-04T20:41:30.046Z,6.38
2022-10-04T20:44:01.595Z,6.63
2022-10-04T20:46:38.707Z,6.20
2022-10-04T20:49:15.608Z,7.05
2022-10-04T20:51:49.915Z,5.97
2022-10-04T20:54:17.966Z,6.93
2022-10-04T20:56:48.281Z,6.28
2022-10-04T20:59:16.911Z,7.25
2022-10-04T21:02:29.776Z,6.15
2022-10-04T21:05:16.056Z,7.00
2022-10-04T21:07:42.693Z,6.53
2022-10-04T21:10:20.045Z,5.90
2022-10-04T21:12:49.127Z,5.85
2022-10-04T21:15:20.893Z,6.70
2022-10-04T21:18:02.066Z,5.53
2022-10-04T21:20:42.005Z,5.70
2022-10-04T21:23:35.746Z,5.18
2022-10-04T21:26:21.249Z,6.63
2022-10-04T21:28:57.158Z,6.07
2022-10-04T21:31:24.583Z,6.03
2022-10-04T21:33:51.367Z,5.80
2022-10-04T21:36:17.967Z,6.53
2022-10-04T21:38:44.569Z,4.93
2022-10-04T21:41:11.228Z,5.10
2022-10-04T21:43:37.867Z,5.90
2022-10-04T21:46:05.724Z,5.95
2022-10-04T21:48:32.487Z,5.20
2022-10-04T21:50:59.102Z,6.32
2022-10-04T21:53:25.733Z,6.80
2022-10-04T21:55:52.398Z,5.35
2022-10-04T21:58:19.066Z,5.93
2022-10-04T22:00:46.193Z,5.57
2022-10-04T22:03:12.891Z,6.13
2022-10-04T22:05:39.556Z,6.28
2022-10-04T22:08:06.366Z,6.13
2022-10-04T22:10:33.163Z,5.60
2022-10-04T22:12:59.826Z,5.88
2022-10-04T22:15:27.694Z,6.10
2022-10-04T22:17:54.960Z,6.78
2022-10-04T22:20:22.343Z,5.93
2022-10-04T22:22:48.955Z,6.80
2022-10-04T22:25:21.482Z,6.07
2022-10-04T22:27:48.382Z,6.38
2022-10-04T22:30:26.365Z,6.72
2022-10-04T22:32:57.511Z,5.70
2022-10-04T22:35:24.798Z,6.22
2022-10-04T22:37:51.591Z,5.35
2022-10-04T22:40:23.664Z,5.63
2022-10-04T22:42:52.761Z,6.55
2022-10-04T22:45:25.582Z,6.35
2022-10-04T22:47:52.507Z,5.78
2022-10-04T22:50:29.154Z,6.25
2022-10-04T22:52:55.777Z,6.50
2022-10-04T22:55:22.542Z,5.35
2022-10-04T22:57:49.749Z,7.05
2022-10-04T23:00:16.399Z,6.03
2022-10-04T23:02:43.133Z,6.43
2022-10-04T23:05:15.183Z,5.95
2022-10-04T23:07:43.466Z,5.75
2022-10-04T23:10:11.501Z,6.68
2022-10-04T23:12:39.812Z,7.03
2022-10-04T23:15:08.009Z,6.82
2022-10-04T23:17:37.311Z,5.65
2022-10-04T23:20:11.569Z,6.65
2022-10-04T23:22:38.324Z,6.88
2022-10-04T23:25:23.753Z,6.80
2022-10-04T23:27:50.482Z,6.45
2022-10-04T23:30:19.974Z,7.38
2022-10-04T23:32:51.648Z,6.85
2022-10-04T23:35:21.387Z,7.10
2022-10-04T23:37:48.724Z,7.15
2022-10-04T23:40:18.358Z,7.53
2022-10-04T23:42:45.332Z,6.75
2022-10-04T23:45:23.355Z,6.82
2022-10-04T23:47:52.579Z,6.35
2022-10-04T23:50:22.397Z,6.13
2022-10-04T23:52:51.215Z,6.88
2022-10-04T23:55:20.682Z,7.25
2022-10-04T23:57:47.530Z,7.88
